Time;durP1;ratioP1;P1;durP2;ratioP2;P2;SDS_P1;SDS_P2;PMS_P1;PMS_P2;Temp;Humidity;BMP_temperature;BMP_pressure;BME280_temperature;BME280_humidity;BME280_pressure;Samples;Min_cycle;Max_cycle;Signal;HPM_P1;HPM_P2
2023/09/18 00:00:36;;;;;;;8.23;4.30;;;23.90;56.80;;;;;;4962117;28;20062;-56
2023/09/18 00:03:03;;;;;;;11.50;4.82;;;23.80;56.80;;;;;;4959853;28;20059;-56
2023/09/18 00:05:31;;;;;;;8.13;4.70;;;23.80;56.80;;;;;;4958374;28;20047;-57
2023/09/18 00:08:01;;;;;;;6.45;4.07;;;23.80;56.80;;;;;;4962510;28;20047;-57
2023/09/18 00:10:30;;;;;;;7.03;4.45;;;23.80;56.90;;;;;;4961871;28;20519;-56
2023/09/18 00:12:57;;;;;;;8.68;4.40;;;23.80;56.90;;;;;;4961351;28;20047;-56
2023/09/18 00:15:25;;;;;;;5.78;3.85;;;23.80;56.90;;;;;;4959770;28;20050;-57
2023/09/18 00:17:52;;;;;;;8.82;4.60;;;23.80;56.90;;;;;;4962349;28;20434;-56
2023/09/18 00:20:20;;;;;;;12.38;4.22;;;23.80;56.90;;;;;;4963132;28;20057;-57
2023/09/18 00:22:47;;;;;;;6.43;4.40;;;23.80;56.90;;;;;;4961589;28;20051;-57
2023/09/18 00:25:16;;;;;;;7.43;4.30;;;23.70;56.80;;;;;;4961548;28;20054;-56
2023/09/18 00:27:43;;;;;;;9.20;4.78;;;23.70;56.80;;;;;;4958217;28;20070;-56
2023/09/18 00:30:11;;;;;;;5.93;4.15;;;23.70;56.80;;;;;;4959920;28;20077;-57
2023/09/18 00:32:38;;;;;;;10.13;4.60;;;23.70;56.80;;;;;;4959769;28;20487;-55
2023/09/18 00:35:06;;;;;;;9.02;4.35;;;23.70;56.80;;;;;;4961246;28;20058;-57
2023/09/18 00:37:33;;;;;;;7.80;4.38;;;23.70;56.90;;;;;;4960944;28;20058;-56
2023/09/18 00:40:01;;;;;;;7.45;4.25;;;23.70;56.90;;;;;;4957728;28;20054;-57
2023/09/18 00:42:30;;;;;;;7.57;4.18;;;23.60;56.90;;;;;;4961846;28;20043;-56
2023/09/18 00:44:57;;;;;;;8.50;4.50;;;23.60;56.90;;;;;;4960342;28;20051;-56
2023/09/18 00:47:25;;;;;;;5.45;3.88;;;23.60;56.90;;;;;;4963003;28;20384;-56
2023/09/18 00:49:53;;;;;;;6.43;4.15;;;23.60;56.90;;;;;;4960450;28;20062;-57
2023/09/18 00:52:22;;;;;;;5.90;4.18;;;23.60;56.90;;;;;;4957017;28;20047;-56
2023/09/18 00:54:49;;;;;;;8.18;4.50;;;23.60;56.90;;;;;;4960433;28;20054;-56
2023/09/18 00:57:17;;;;;;;10.80;4.28;;;23.60;56.90;;;;;;4961399;28;20521;-56
2023/09/18 00:59:46;;;;;;;5.88;3.90;;;23.60;56.90;;;;;;4960570;28;20522;-57
2023/09/18 01:02:14;;;;;;;8.75;4.35;;;23.60;56.90;;;;;;4980602;23;20977;-52
2023/09/18 01:04:43;;;;;;;8.18;4.18;;;23.60;56.90;;;;;;4978608;28;20057;-54
2023/09/18 01:07:11;;;;;;;9.63;4.38;;;23.50;56.80;;;;;;4976147;28;20054;-50
2023/09/18 01:09:39;;;;;;;9.85;4.40;;;23.50;56.80;;;;;;4979794;28;20058;-53
2023/09/18 01:12:13;;;;;;;7.07;3.88;;;23.50;56.80;;;;;;4979452;28;20047;-51
2023/09/18 01:14:43;;;;;;;;;;;23.50;56.80;;;;;;4978427;28;20062;-51
2023/09/18 01:17:13;;;;;;;9.40;4.30;;;23.60;56.80;;;;;;4979965;28;19929;-49
2023/09/18 01:19:44;;;;;;;8.15;3.92;;;23.60;56.70;;;;;;4961462;28;20046;-50
2023/09/18 01:22:12;;;;;;;5.70;3.80;;;23.50;56.70;;;;;;4978241;28;20529;-48
2023/09/18 01:24:41;;;;;;;8.75;3.90;;;23.50;56.70;;;;;;4975724;28;20054;-47
2023/09/18 01:27:11;;;;;;;9.88;3.90;;;23.50;56.70;;;;;;4980164;28;20383;-51
2023/09/18 01:29:38;;;;;;;7.20;4.10;;;23.50;56.70;;;;;;4980462;28;20058;-52
2023/09/18 01:32:06;;;;;;;7.18;3.88;;;23.50;56.70;;;;;;4976052;28;20058;-52
2023/09/18 01:34:35;;;;;;;11.77;4.18;;;23.50;56.80;;;;;;4977108;28;20057;-53
2023/09/18 01:37:05;;;;;;;9.10;4.35;;;23.50;56.80;;;;;;4977167;28;20061;-50
2023/09/18 01:39:35;;;;;;;14.45;3.95;;;23.50;56.80;;;;;;4978018;28;20050;-56
2023/09/18 01:42:05;;;;;;;7.28;3.90;;;23.50;56.80;;;;;;4973888;28;20058;-56
2023/09/18 01:44:32;;;;;;;10.48;4.15;;;23.50;56.80;;;;;;4979597;28;20047;-57
2023/09/18 01:47:03;;;;;;;6.72;3.58;;;23.50;56.80;;;;;;4978984;28;20501;-50
2023/09/18 01:49:33;;;;;;;6.50;3.72;;;23.50;56.80;;;;;;4980141;28;20050;-52
2023/09/18 01:52:00;;;;;;;7.47;3.85;;;23.50;56.70;;;;;;4978330;28;20061;-53
2023/09/18 01:54:28;;;;;;;9.55;3.60;;;23.50;56.70;;;;;;4976436;28;20657;-54
2023/09/18 01:56:55;;;;;;;8.80;3.92;;;23.50;56.70;;;;;;4978439;28;20426;-51
2023/09/18 01:59:24;;;;;;;10.18;3.83;;;23.50;57.20;;;;;;4976634;28;20066;-56
2023/09/18 02:01:53;;;;;;;7.78;3.88;;;23.50;56.70;;;;;;4973900;28;20509;-59
2023/09/18 02:04:21;;;;;;;8.02;3.28;;;23.50;56.60;;;;;;4980137;28;20502;-53
2023/09/18 02:06:50;;;;;;;8.02;4.22;;;23.60;56.70;;;;;;4975759;28;20058;-57
2023/09/18 02:09:17;;;;;;;7.40;3.90;;;23.50;56.60;;;;;;4978379;28;20065;-58
2023/09/18 02:11:48;;;;;;;8.43;3.75;;;23.50;56.50;;;;;;4980944;28;20062;-54
2023/09/18 02:14:15;;;;;;;9.00;4.05;;;23.50;56.50;;;;;;4980584;28;20061;-65
2023/09/18 02:16:45;;;;;;;7.57;3.65;;;23.60;56.50;;;;;;4979049;28;20058;-61
2023/09/18 02:19:14;;;;;;;7.35;3.67;;;23.60;56.50;;;;;;4980856;28;20050;-61
2023/09/18 02:21:42;;;;;;;8.35;4.05;;;23.60;56.50;;;;;;4980381;28;20067;-62
2023/09/18 02:24:09;;;;;;;11.63;4.03;;;23.60;56.50;;;;;;4982895;28;20513;-66
2023/09/18 02:26:37;;;;;;;19.17;3.78;;;23.60;56.50;;;;;;4983744;28;20054;-62
2023/09/18 02:29:07;;;;;;;9.13;3.13;;;23.60;56.60;;;;;;4982709;28;20055;-60
2023/09/18 02:31:35;;;;;;;10.80;3.50;;;23.60;56.70;;;;;;4976984;28;20057;-59
2023/09/18 02:34:03;;;;;;;6.60;3.05;;;23.60;56.90;;;;;;4961261;28;20426;-64
2023/09/18 02:36:30;;;;;;;14.27;3.33;;;23.60;57.10;;;;;;4961099;28;20334;-63
2023/09/18 02:38:58;;;;;;;8.05;2.70;;;23.60;57.20;;;;;;4964891;28;20062;-64
2023/09/18 02:41:25;;;;;;;9.52;3.50;;;23.60;57.30;;;;;;4962036;28;20608;-64
2023/09/18 02:43:52;;;;;;;9.60;3.40;;;23.60;57.30;;;;;;4963317;28;20051;-64
2023/09/18 02:46:19;;;;;;;9.65;3.10;;;23.60;57.30;;;;;;4964860;28;20055;-64
2023/09/18 02:48:47;;;;;;;10.98;3.47;;;23.60;57.50;;;;;;4964542;28;20054;-64
2023/09/18 02:51:15;;;;;;;8.77;2.95;;;23.60;57.40;;;;;;4962443;28;20054;-64
2023/09/18 02:53:42;;;;;;;8.98;3.22;;;23.60;57.50;;;;;;4962951;28;20058;-63
2023/09/18 02:56:10;;;;;;;9.73;3.10;;;23.60;57.50;;;;;;4963818;28;20058;-63
2023/09/18 02:58:37;;;;;;;8.40;3.00;;;23.60;57.50;;;;;;4964751;28;20525;-64
2023/09/18 03:01:05;;;;;;;8.15;3.00;;;23.60;57.60;;;;;;4961693;28;20062;-64
2023/09/18 03:03:32;;;;;;;8.32;2.78;;;23.60;57.60;;;;;;4963595;28;20634;-62
2023/09/18 03:06:03;;;;;;;10.52;3.20;;;23.60;57.60;;;;;;4963721;28;20047;-64
2023/09/18 03:08:32;;;;;;;9.90;3.25;;;23.60;57.80;;;;;;4964303;28;20050;-60
2023/09/18 03:10:59;;;;;;;7.90;2.70;;;23.50;57.70;;;;;;4963117;28;20441;-64
2023/09/18 03:13:28;;;;;;;8.32;2.67;;;23.60;57.90;;;;;;4961637;28;20483;-63
2023/09/18 03:15:56;;;;;;;12.40;3.80;;;23.50;57.90;;;;;;4959348;28;20514;-63
2023/09/18 03:18:23;;;;;;;8.77;2.80;;;23.50;57.90;;;;;;4962370;28;20051;-65
2023/09/18 03:20:50;;;;;;;9.93;4.20;;;23.50;57.90;;;;;;4963303;28;20046;-62
2023/09/18 03:23:17;;;;;;;13.02;3.63;;;23.50;58.00;;;;;;4962482;28;20070;-55
2023/09/18 03:25:47;;;;;;;16.73;4.43;;;23.50;58.00;;;;;;4960608;28;20506;-51
2023/09/18 03:28:14;;;;;;;13.48;4.15;;;23.40;58.00;;;;;;4963586;28;20070;-53
2023/09/18 03:30:42;;;;;;;14.68;4.22;;;23.40;58.00;;;;;;4962026;28;20063;-52
2023/09/18 03:33:09;;;;;;;9.73;3.17;;;23.30;58.10;;;;;;4960674;28;20055;-51
2023/09/18 03:35:47;;;;;;;14.18;3.65;;;23.30;58.10;;;;;;4958918;28;20509;-49
2023/09/18 03:38:14;;;;;;;13.88;4.25;;;23.30;58.20;;;;;;4960174;28;20054;-55
2023/09/18 03:40:43;;;;;;;11.85;3.60;;;23.30;58.20;;;;;;4960716;28;20067;-56
2023/09/18 03:43:12;;;;;;;9.90;3.20;;;23.20;58.20;;;;;;4961567;28;20082;-49
2023/09/18 03:45:41;;;;;;;9.55;3.53;;;23.20;58.30;;;;;;4961416;28;20601;-52
2023/09/18 03:48:09;;;;;;;14.55;3.88;;;23.20;58.30;;;;;;4961168;28;20084;-58
2023/09/18 03:50:36;;;;;;;11.32;3.58;;;23.20;58.40;;;;;;4960075;28;20062;-56
2023/09/18 03:53:04;;;;;;;12.98;3.92;;;23.10;58.50;;;;;;4962305;28;20062;-52
2023/09/18 03:55:31;;;;;;;10.82;4.03;;;23.10;58.50;;;;;;4961940;28;20047;-52
2023/09/18 03:57:58;;;;;;;12.95;4.63;;;23.10;58.60;;;;;;4960986;28;20055;-53
2023/09/18 04:00:27;;;;;;;9.20;3.53;;;23.00;58.50;;;;;;4959309;28;20059;-56
2023/09/18 04:02:54;;;;;;;10.23;3.38;;;23.10;58.60;;;;;;4962552;28;20434;-49
2023/09/18 04:05:22;;;;;;;16.50;4.75;;;23.00;58.60;;;;;;4960919;28;20376;-58
2023/09/18 04:07:49;;;;;;;10.63;3.33;;;23.00;58.70;;;;;;4961859;28;20070;-54
2023/09/18 04:10:20;;;;;;;8.60;3.15;;;23.00;58.70;;;;;;4962257;28;20047;-56
2023/09/18 04:12:47;;;;;;;11.40;3.72;;;23.00;58.70;;;;;;4958946;28;20059;-53
2023/09/18 04:15:17;;;;;;;14.45;3.50;;;23.00;58.70;;;;;;4962950;28;20062;-50
2023/09/18 04:17:46;;;;;;;9.25;3.20;;;23.00;58.70;;;;;;4955812;28;20522;-49
2023/09/18 04:20:14;;;;;;;10.27;3.00;;;23.00;58.80;;;;;;4960899;28;20521;-47
2023/09/18 04:22:45;;;;;;;12.80;3.40;;;22.90;58.70;;;;;;4960701;28;20061;-56
2023/09/18 04:25:13;;;;;;;9.57;3.03;;;22.90;58.80;;;;;;4958105;28;20050;-53
2023/09/18 04:27:40;;;;;;;10.80;2.97;;;22.90;58.70;;;;;;4959558;28;20054;-50
2023/09/18 04:30:10;;;;;;;11.00;2.85;;;22.90;58.70;;;;;;4962520;28;20058;-53
2023/09/18 04:32:37;;;;;;;11.27;3.03;;;22.90;58.80;;;;;;4957652;28;20055;-52
2023/09/18 04:35:08;;;;;;;9.32;3.33;;;22.90;58.80;;;;;;4960689;28;20046;-50
2023/09/18 04:37:38;;;;;;;13.70;3.15;;;22.90;58.80;;;;;;4960013;28;20059;-52
2023/09/18 04:40:09;;;;;;;10.38;2.88;;;22.90;58.80;;;;;;4960988;28;20059;-53
2023/09/18 04:42:37;;;;;;;11.10;2.67;;;22.90;58.80;;;;;;4957935;28;20058;-52
2023/09/18 04:45:06;;;;;;;15.02;2.67;;;22.80;58.70;;;;;;4959975;28;20059;-51
2023/09/18 04:47:33;;;;;;;7.05;2.50;;;22.90;58.80;;;;;;4958329;28;20058;-56
2023/09/18 04:50:05;;;;;;;7.35;2.63;;;22.90;58.80;;;;;;4960353;28;20494;-51
2023/09/18 04:52:34;;;;;;;10.32;2.90;;;22.80;58.70;;;;;;4960052;28;20054;-48
2023/09/18 04:55:01;;;;;;;8.02;2.10;;;22.80;58.70;;;;;;4958904;28;20387;-51
2023/09/18 04:57:28;;;;;;;13.82;2.50;;;22.80;58.70;;;;;;4959839;28;20051;-49
2023/09/18 04:59:56;;;;;;;8.55;2.20;;;22.90;58.70;;;;;;4959882;28;20051;-47
2023/09/18 05:02:25;;;;;;;6.20;2.30;;;22.80;58.70;;;;;;4957855;28;20054;-52
2023/09/18 05:04:52;;;;;;;7.97;2.72;;;22.80;58.70;;;;;;4955702;28;20051;-53
2023/09/18 05:07:20;;;;;;;9.65;2.60;;;22.80;58.70;;;;;;4959596;28;20487;-52
2023/09/18 05:09:49;;;;;;;7.47;2.40;;;22.80;58.70;;;;;;4959658;28;20450;-57
2023/09/18 05:12:16;;;;;;;13.40;2.35;;;22.80;58.70;;;;;;4960685;28;20051;-58
2023/09/18 05:14:46;;;;;;;10.48;2.47;;;22.80;58.70;;;;;;4958364;28;20147;-54
2023/09/18 05:17:16;;;;;;;6.90;2.58;;;22.80;58.70;;;;;;4958682;28;20058;-54
2023/09/18 05:19:43;;;;;;;7.25;2.40;;;22.80;58.70;;;;;;4960383;28;20062;-54
2023/09/18 05:22:11;;;;;;;8.70;2.28;;;22.80;58.60;;;;;;4960611;28;20055;-50
2023/09/18 05:24:39;;;;;;;11.75;2.67;;;22.80;58.60;;;;;;4960470;28;20047;-53
2023/09/18 05:27:07;;;;;;;9.23;2.63;;;22.80;58.60;;;;;;4960633;28;20050;-52
2023/09/18 05:29:36;;;;;;;6.90;2.67;;;22.80;58.60;;;;;;4961052;28;20051;-55
2023/09/18 05:32:03;;;;;;;6.55;1.95;;;22.90;58.70;;;;;;4959910;28;20062;-57
2023/09/18 05:34:31;;;;;;;10.80;2.53;;;22.80;58.60;;;;;;4960332;28;20054;-53
2023/09/18 05:36:58;;;;;;;5.75;2.03;;;22.90;58.70;;;;;;4959865;28;20059;-51
2023/09/18 05:39:26;;;;;;;7.15;2.25;;;22.90;58.70;;;;;;4956378;28;20062;-52
2023/09/18 05:41:53;;;;;;;5.28;1.73;;;22.90;58.70;;;;;;4959040;28;20054;-54
2023/09/18 05:44:22;;;;;;;6.50;2.03;;;22.90;58.70;;;;;;4957552;28;20050;-63
2023/09/18 05:46:49;;;;;;;6.15;2.17;;;22.80;58.60;;;;;;4957048;28;20062;-62
2023/09/18 05:49:17;;;;;;;5.78;2.28;;;22.90;58.70;;;;;;4959498;28;20050;-65
2023/09/18 05:51:44;;;;;;;6.25;2.30;;;22.90;58.70;;;;;;4959197;28;20055;-61
2023/09/18 05:54:11;;;;;;;6.72;2.15;;;22.90;58.70;;;;;;4962554;28;20054;-63
2023/09/18 05:56:39;;;;;;;7.88;2.08;;;22.80;58.60;;;;;;4964258;28;20066;-63
2023/09/18 05:59:06;;;;;;;6.25;2.05;;;22.80;58.60;;;;;;4964612;28;20059;-63
2023/09/18 06:01:35;;;;;;;6.80;2.15;;;22.90;58.70;;;;;;4961290;28;20058;-64
2023/09/18 06:04:03;;;;;;;7.38;2.40;;;22.80;58.70;;;;;;4963484;28;20069;-64
2023/09/18 06:06:30;;;;;;;8.52;1.70;;;22.90;58.70;;;;;;4964876;28;20061;-63
2023/09/18 06:08:58;;;;;;;4.47;1.60;;;22.90;58.80;;;;;;4966529;28;20491;-66
2023/09/18 06:11:25;;;;;;;5.43;1.75;;;22.90;58.70;;;;;;4966489;28;20070;-61
2023/09/18 06:13:52;;;;;;;7.43;2.10;;;22.90;58.70;;;;;;4962336;28;20062;-62
2023/09/18 06:16:19;;;;;;;6.25;1.98;;;22.90;58.80;;;;;;4965756;28;20414;-63
2023/09/18 06:18:48;;;;;;;7.55;1.70;;;22.90;58.80;;;;;;4966874;28;20517;-61
2023/09/18 06:21:15;;;;;;;5.28;1.80;;;22.90;58.80;;;;;;4964963;28;20058;-63
2023/09/18 06:23:42;;;;;;;3.72;1.65;;;22.90;58.80;;;;;;4963179;28;20055;-64
2023/09/18 06:26:10;;;;;;;3.15;1.55;;;22.90;58.90;;;;;;4965348;28;20055;-63
2023/09/18 06:28:38;;;;;;;5.40;1.65;;;22.90;58.90;;;;;;4964648;28;20085;-64
2023/09/18 06:31:05;;;;;;;4.65;1.77;;;22.90;58.90;;;;;;4965278;28;20078;-61
2023/09/18 06:33:32;;;;;;;6.72;2.20;;;23.00;59.00;;;;;;4962916;28;20054;-62
2023/09/18 06:36:02;;;;;;;4.50;1.70;;;23.00;58.90;;;;;;4964412;28;20055;-62
2023/09/18 06:38:29;;;;;;;4.65;2.05;;;23.00;58.90;;;;;;4965050;28;20050;-63
2023/09/18 06:40:56;;;;;;;6.00;2.05;;;23.00;58.90;;;;;;4965496;28;20070;-64
2023/09/18 06:43:24;;;;;;;8.10;1.77;;;23.00;58.90;;;;;;4962547;28;20054;-61
2023/09/18 06:45:51;;;;;;;6.45;1.80;;;23.00;58.80;;;;;;4961853;28;20409;-62
2023/09/18 06:48:18;;;;;;;5.43;1.75;;;23.00;58.90;;;;;;4958559;28;20046;-63
2023/09/18 06:50:45;;;;;;;2.95;1.52;;;23.00;58.90;;;;;;4960902;28;20065;-60
2023/09/18 06:53:14;;;;;;;5.72;2.08;;;23.10;59.00;;;;;;4964924;28;20055;-64
2023/09/18 06:55:41;;;;;;;4.00;1.65;;;23.10;59.00;;;;;;4965289;28;20495;-52
2023/09/18 06:58:09;;;;;;;4.60;1.60;;;23.10;59.00;;;;;;4962969;28;20066;-50
2023/09/18 07:00:36;;;;;;;4.20;1.70;;;23.10;59.00;;;;;;4964281;28;20498;-55
2023/09/18 07:03:04;;;;;;;4.28;1.80;;;23.10;59.00;;;;;;4964026;28;20058;-58
2023/09/18 07:05:31;;;;;;;4.72;1.63;;;23.10;59.00;;;;;;4964168;28;20502;-54
2023/09/18 07:07:59;;;;;;;6.85;1.50;;;23.10;59.00;;;;;;4961706;28;20055;-50
2023/09/18 07:10:27;;;;;;;4.15;1.40;;;23.10;58.90;;;;;;4961158;28;20487;-50
2023/09/18 07:12:55;;;;;;;2.78;1.17;;;23.20;58.70;;;;;;4964758;28;20591;-51
2023/09/18 07:15:22;;;;;;;6.35;1.73;;;23.20;58.70;;;;;;4965010;28;20055;-54
2023/09/18 07:17:49;;;;;;;6.63;1.88;;;23.20;58.60;;;;;;4960965;28;20055;-53
2023/09/18 07:20:17;;;;;;;9.63;2.63;;;23.20;58.50;;;;;;4962391;28;20054;-55
2023/09/18 07:22:47;;;;;;;6.30;1.40;;;23.20;58.40;;;;;;4960855;28;20050;-51
2023/09/18 07:25:15;;;;;;;5.00;1.70;;;23.20;58.00;;;;;;4962469;28;20517;-50
2023/09/18 07:27:44;;;;;;;3.15;1.20;;;23.20;58.00;;;;;;4963365;28;20410;-53
2023/09/18 07:30:15;;;;;;;5.93;1.52;;;23.20;57.70;;;;;;4960428;28;20089;-53
2023/09/18 07:32:43;;;;;;;5.60;1.60;;;23.20;57.70;;;;;;4960946;28;20051;-57
2023/09/18 07:35:11;;;;;;;4.55;1.42;;;23.20;57.50;;;;;;4960866;28;20503;-51
2023/09/18 07:37:38;;;;;;;4.55;1.23;;;23.20;57.30;;;;;;4958847;28;20062;-51
2023/09/18 07:40:07;;;;;;;2.88;1.20;;;23.20;57.20;;;;;;4961872;28;20051;-55
2023/09/18 07:42:35;;;;;;;2.30;1.25;;;23.20;57.10;;;;;;4961891;28;20414;-52
2023/09/18 07:45:04;;;;;;;2.95;1.10;;;23.20;57.00;;;;;;4957743;28;20061;-51
2023/09/18 07:47:33;;;;;;;3.85;1.35;;;23.20;57.00;;;;;;4957765;28;20063;-49
2023/09/18 07:50:00;;;;;;;2.10;1.02;;;23.30;57.10;;;;;;4959015;28;20054;-54
2023/09/18 07:52:28;;;;;;;2.80;1.20;;;23.30;57.20;;;;;;4957406;28;20507;-54
2023/09/18 07:54:55;;;;;;;2.85;1.10;;;23.30;57.20;;;;;;4960663;28;20065;-50
2023/09/18 07:57:23;;;;;;;5.47;1.50;;;23.30;57.30;;;;;;4962671;28;20057;-53
2023/09/18 07:59:51;;;;;;;2.40;1.17;;;23.30;57.30;;;;;;4958023;28;20062;-52
2023/09/18 08:02:21;;;;;;;4.13;1.20;;;23.40;57.40;;;;;;4962666;28;20047;-53
2023/09/18 08:04:49;;;;;;;3.33;1.15;;;23.40;57.20;;;;;;4961971;28;20415;-61
2023/09/18 08:07:17;;;;;;;6.07;1.58;;;23.50;57.30;;;;;;4960753;28;20054;-61
2023/09/18 08:09:44;;;;;;;7.53;1.20;;;23.50;57.20;;;;;;4963373;28;20056;-59
2023/09/18 08:12:11;;;;;;;4.35;1.45;;;23.50;57.20;;;;;;4963123;28;20055;-59
2023/09/18 08:14:39;;;;;;;4.40;1.50;;;23.50;57.10;;;;;;4960049;28;20070;-58
2023/09/18 08:17:07;;;;;;;6.85;1.50;;;23.50;57.00;;;;;;4957920;28;20513;-62
2023/09/18 08:19:36;;;;;;;3.33;1.10;;;23.60;56.90;;;;;;4958090;28;20055;-61
2023/09/18 08:22:04;;;;;;;4.10;1.30;;;23.60;56.80;;;;;;4962074;28;20058;-59
2023/09/18 08:24:31;;;;;;;7.45;1.38;;;23.60;56.70;;;;;;4957404;28;20511;-63
2023/09/18 08:26:58;;;;;;;4.05;1.70;;;23.60;56.60;;;;;;4960562;28;20058;-65
2023/09/18 08:29:26;;;;;;;2.40;1.30;;;23.60;56.40;;;;;;4960256;28;20066;-62
2023/09/18 08:31:53;;;;;;;4.20;1.10;;;23.60;56.50;;;;;;4957095;28;20055;-57
2023/09/18 08:34:20;;;;;;;4.30;1.63;;;23.60;56.60;;;;;;4961885;28;20054;-59
2023/09/18 08:36:49;;;;;;;3.25;1.00;;;23.60;56.50;;;;;;4961787;28;20051;-61
2023/09/18 08:39:17;;;;;;;7.05;1.33;;;23.60;56.70;;;;;;4959995;28;20059;-61
2023/09/18 08:41:46;;;;;;;3.58;1.20;;;23.60;56.60;;;;;;4961119;28;20062;-62
2023/09/18 08:44:14;;;;;;;5.88;1.40;;;23.70;56.50;;;;;;4958123;28;20406;-62
2023/09/18 08:46:43;;;;;;;5.10;1.48;;;23.70;56.50;;;;;;4961190;28;20419;-62
2023/09/18 08:49:12;;;;;;;6.72;1.30;;;23.70;56.60;;;;;;4960919;28;20051;-60
2023/09/18 08:51:40;;;;;;;2.50;1.10;;;23.70;56.30;;;;;;4958466;28;20050;-61
2023/09/18 08:54:10;;;;;;;2.83;1.30;;;23.70;56.30;;;;;;4959683;28;20491;-62
2023/09/18 08:56:38;;;;;;;3.40;1.27;;;23.70;56.20;;;;;;4960728;28;20055;-63
2023/09/18 08:59:05;;;;;;;5.95;1.15;;;23.70;56.20;;;;;;4959474;28;20054;-58
2023/09/18 09:01:33;;;;;;;3.00;1.20;;;23.80;56.30;;;;;;4961149;28;20054;-60
2023/09/18 09:04:00;;;;;;;5.13;1.52;;;23.80;56.20;;;;;;4961163;28;20404;-61
2023/09/18 09:06:28;;;;;;;3.63;0.95;;;23.80;56.10;;;;;;4956381;28;20057;-55
2023/09/18 09:08:55;;;;;;;6.68;1.48;;;23.80;55.80;;;;;;4960642;28;20103;-57
2023/09/18 09:11:23;;;;;;;1.52;0.90;;;23.80;55.90;;;;;;4960734;28;20592;-58
2023/09/18 09:14:11;;;;;;;5.95;1.30;;;23.80;56.00;;;;;;4958810;28;20517;-60
2023/09/18 09:16:40;;;;;;;3.60;1.02;;;23.90;55.90;;;;;;4957860;28;20043;-60
2023/09/18 09:19:08;;;;;;;5.15;1.52;;;23.90;55.80;;;;;;4959091;28;20419;-61
2023/09/18 09:21:43;;;;;;;3.70;1.42;;;23.90;55.80;;;;;;4959094;28;20047;-58
2023/09/18 09:24:13;;;;;;;4.07;1.50;;;23.90;55.80;;;;;;4959025;28;20055;-59
2023/09/18 09:26:43;;;;;;;5.28;1.40;;;23.90;55.60;;;;;;4959083;28;20418;-59
2023/09/18 09:29:18;;;;;;;3.90;1.55;;;23.90;55.60;;;;;;4958249;28;20066;-56
2023/09/18 09:31:46;;;;;;;5.05;1.33;;;24.00;55.40;;;;;;4960097;28;20058;-60
2023/09/18 09:34:25;;;;;;;6.80;1.70;;;24.00;55.60;;;;;;4959612;28;20054;-58
2023/09/18 09:36:54;;;;;;;3.40;1.48;;;24.00;55.60;;;;;;4959880;28;20496;-59
2023/09/18 09:39:24;;;;;;;5.70;1.80;;;24.00;55.40;;;;;;4960233;28;20051;-58
2023/09/18 09:41:53;;;;;;;4.15;1.42;;;24.00;55.40;;;;;;4957711;28;20063;-59
2023/09/18 09:44:21;;;;;;;3.08;1.20;;;24.10;55.40;;;;;;4958180;28;20054;-57
2023/09/18 09:46:49;;;;;;;4.88;1.25;;;24.10;55.40;;;;;;4960642;28;20062;-59
2023/09/18 09:49:17;;;;;;;2.90;1.25;;;24.10;55.30;;;;;;4960764;28;20066;-60
2023/09/18 09:51:44;;;;;;;6.22;0.95;;;24.20;55.30;;;;;;4958969;28;20065;-60
2023/09/18 09:54:13;;;;;;;5.80;1.48;;;24.10;55.10;;;;;;4926437;28;20057;-60
2023/09/18 09:56:45;;;;;;;2.33;1.10;;;24.20;55.10;;;;;;4960871;28;20054;-59
2023/09/18 09:59:15;;;;;;;2.92;0.98;;;24.20;55.30;;;;;;4957948;28;20087;-61
2023/09/18 10:01:44;;;;;;;3.33;1.30;;;24.20;55.40;;;;;;4957810;28;20059;-57
2023/09/18 10:04:13;;;;;;;2.38;0.90;;;24.20;55.40;;;;;;4959522;28;20094;-61
2023/09/18 10:06:44;;;;;;;3.55;1.20;;;24.30;55.20;;;;;;4959454;28;20081;-59
2023/09/18 10:09:14;;;;;;;2.03;1.10;;;24.30;55.10;;;;;;4958059;28;20062;-58
2023/09/18 10:11:45;;;;;;;4.95;1.30;;;24.30;55.10;;;;;;4958400;28;20065;-59
2023/09/18 10:14:18;;;;;;;2.13;1.25;;;24.30;54.80;;;;;;4957707;28;20061;-60
2023/09/18 10:16:54;;;;;;;2.88;1.20;;;24.40;54.80;;;;;;4958155;28;20418;-61
2023/09/18 10:19:28;;;;;;;3.22;0.95;;;24.40;54.90;;;;;;4962476;28;20074;-60
2023/09/18 10:22:10;;;;;;;1.77;0.88;;;24.40;55.00;;;;;;4957672;28;20502;-61
2023/09/18 10:24:41;;;;;;;3.42;1.05;;;24.40;55.30;;;;;;4961050;28;20222;-61
2023/09/18 10:27:09;;;;;;;3.00;1.10;;;24.50;55.40;;;;;;4960417;28;20066;-61
2023/09/18 10:29:38;;;;;;;4.28;1.02;;;24.50;55.50;;;;;;4959447;28;20046;-60
2023/09/18 10:32:08;;;;;;;3.65;1.08;;;24.50;55.40;;;;;;4959277;28;20054;-57
2023/09/18 10:34:36;;;;;;;1.90;0.90;;;24.50;55.00;;;;;;4959360;28;20054;-59
2023/09/18 10:37:06;;;;;;;1.80;0.90;;;24.60;55.00;;;;;;4959797;28;20057;-63
2023/09/18 10:39:36;;;;;;;2.05;0.80;;;24.60;55.30;;;;;;4959796;28;20051;-59
2023/09/18 10:42:06;;;;;;;1.55;0.80;;;24.60;54.90;;;;;;4961603;28;20055;-60
2023/09/18 10:44:33;;;;;;;3.47;1.08;;;24.70;54.90;;;;;;4959770;28;20050;-58
2023/09/18 10:47:05;;;;;;;2.92;1.15;;;24.70;55.10;;;;;;4960473;28;20069;-57
2023/09/18 10:56:17;;;;;;;2.15;0.90;;;24.80;54.50;;;;;;4967569;28;20041;-60
2023/09/18 10:58:45;;;;;;;3.88;1.00;;;24.90;54.60;;;;;;4960546;28;20058;-59
2023/09/18 11:01:13;;;;;;;2.13;0.80;;;24.90;54.50;;;;;;4960151;28;20065;-59
2023/09/18 11:03:42;;;;;;;4.60;1.10;;;24.90;54.20;;;;;;4963400;28;20155;-58
2023/09/18 11:06:14;;;;;;;2.13;1.10;;;25.00;54.20;;;;;;4956358;28;20058;-58
2023/09/18 11:08:45;;;;;;;1.48;0.90;;;25.00;54.10;;;;;;4962562;28;20059;-57
2023/09/18 11:11:16;;;;;;;6.10;1.13;;;25.00;54.20;;;;;;4959151;28;20063;-58
2023/09/18 11:13:45;;;;;;;4.40;1.33;;;25.10;54.00;;;;;;4962976;28;20438;-59
2023/09/18 11:16:18;;;;;;;2.00;0.85;;;25.10;53.90;;;;;;4959460;28;20074;-56
2023/09/18 11:18:52;;;;;;;4.05;1.35;;;25.20;53.50;;;;;;4962868;28;20057;-57
2023/09/18 11:21:24;;;;;;;1.27;0.80;;;25.20;53.10;;;;;;4962868;28;20066;-58
2023/09/18 11:23:59;;;;;;;1.50;0.90;;;25.20;53.00;;;;;;4963456;28;20541;-59
2023/09/18 11:26:30;;;;;;;1.77;1.10;;;25.30;52.60;;;;;;4959405;28;20051;-56
2023/09/18 11:28:59;;;;;;;3.13;1.17;;;25.20;52.20;;;;;;4961333;28;20066;-57
2023/09/18 11:31:42;;;;;;;2.67;0.95;;;25.20;52.40;;;;;;4959642;28;20046;-59
2023/09/18 11:34:15;;;;;;;3.00;1.00;;;25.20;51.90;;;;;;4963372;28;20410;-56
2023/09/18 11:36:43;;;;;;;3.13;1.17;;;25.20;51.80;;;;;;4958868;28;20061;-54
2023/09/18 11:39:11;;;;;;;3.70;1.27;;;25.20;52.20;;;;;;4961074;28;20051;-52
2023/09/18 11:41:39;;;;;;;4.63;1.13;;;25.20;52.20;;;;;;4960203;28;20051;-51
2023/09/18 11:44:40;;;;;;;2.25;1.00;;;25.20;52.00;;;;;;4960169;28;20058;-55
2023/09/18 11:47:12;;;;;;;3.88;1.17;;;25.20;51.90;;;;;;4960343;28;20050;-52
2023/09/18 11:49:42;;;;;;;2.90;1.33;;;25.20;51.90;;;;;;4961282;28;20059;-57
2023/09/18 11:52:10;;;;;;;2.53;1.10;;;25.20;51.90;;;;;;4960273;28;20055;-54
2023/09/18 11:54:40;;;;;;;2.35;1.10;;;25.20;52.00;;;;;;4960071;28;20407;-55
2023/09/18 11:57:08;;;;;;;2.47;0.90;;;25.20;51.70;;;;;;4956207;28;20062;-55
2023/09/18 11:59:37;;;;;;;2.78;0.90;;;25.20;51.80;;;;;;4959045;28;20046;-55
2023/09/18 12:02:08;;;;;;;4.55;1.02;;;25.20;51.70;;;;;;4956820;28;20061;-53
2023/09/18 12:04:35;;;;;;;1.02;0.80;;;25.20;51.70;;;;;;4959706;28;20043;-54
2023/09/18 12:07:05;;;;;;;2.75;1.25;;;25.20;51.50;;;;;;4959959;28;20055;-55
2023/09/18 12:09:32;;;;;;;2.60;1.38;;;25.20;51.50;;;;;;4962102;28;20066;-53
2023/09/18 12:12:03;;;;;;;3.05;1.10;;;25.30;51.30;;;;;;4961986;28;20057;-53
2023/09/18 12:14:32;;;;;;;2.03;1.20;;;25.30;51.30;;;;;;4942935;28;20517;-56
2023/09/18 12:17:01;;;;;;;4.25;1.00;;;25.30;51.30;;;;;;4958688;28;20061;-50
2023/09/18 12:19:28;;;;;;;6.88;1.15;;;25.40;51.20;;;;;;4961397;28;20407;-52
2023/09/18 12:21:55;;;;;;;5.15;1.35;;;25.40;51.10;;;;;;4957624;28;20065;-52
2023/09/18 12:24:25;;;;;;;2.55;1.30;;;25.40;51.10;;;;;;4957540;28;20440;-51
2023/09/18 12:26:53;;;;;;;1.88;1.10;;;25.50;50.80;;;;;;4957658;28;20047;-52
2023/09/18 12:29:20;;;;;;;3.58;1.00;;;25.50;50.40;;;;;;4958547;28;20054;-52
2023/09/18 12:31:50;;;;;;;3.92;1.10;;;25.60;50.30;;;;;;4961628;28;20397;-55
2023/09/18 12:34:19;;;;;;;1.98;1.02;;;25.60;50.30;;;;;;4959871;28;20050;-55
2023/09/18 12:36:48;;;;;;;1.70;1.10;;;25.60;50.20;;;;;;4958901;28;20994;-55
2023/09/18 12:39:16;;;;;;;2.97;1.30;;;25.60;50.00;;;;;;4954997;28;20604;-52
2023/09/18 12:41:46;;;;;;;2.95;1.23;;;25.70;49.50;;;;;;4962914;28;20054;-56
2023/09/18 12:44:16;;;;;;;3.03;1.35;;;25.70;49.40;;;;;;4961960;28;20069;-47
2023/09/18 12:46:44;;;;;;;2.55;1.35;;;25.70;49.40;;;;;;4959084;28;20066;-46
2023/09/18 12:49:23;;;;;;;1.55;0.80;;;25.70;49.40;;;;;;4957916;28;20549;-51
2023/09/18 12:52:00;;;;;;;2.97;1.15;;;25.80;49.10;;;;;;4958737;28;20063;-47
2023/09/18 12:54:40;;;;;;;2.35;1.05;;;25.80;48.70;;;;;;4959838;28;20059;-57
2023/09/18 12:57:10;;;;;;;3.05;1.20;;;25.80;49.00;;;;;;4962925;28;20400;-51
2023/09/18 12:59:39;;;;;;;3.05;1.40;;;25.80;48.90;;;;;;4961953;28;20051;-49